Nakhon Si Thamma, Thailand

4:13 PM ICT on August 28, 2014 (GMT +0700)
Nakhon Si Thammarat | Change Station
CLOSE
Current Station
Airport
Location: Nakhon Si Thamma,
Elevation: 13 ft
Nearby Weather Stations

Elev 13 ft 8.54 °N, 99.94 °E | Updated 13 minutes ago

Thunderstorm
Thunderstorm
79 °F
Feels Like 79 °F
N
12
Wind Variable Wind from NW
Gusts 25 mph

Today
High -- | Low -- °F
--% Chance of Precip.
Yesterday
High -- | Low -- °F
Precip. -- in
6:12 AM 6:30 PM
Waxing Crescent, 7% visible
Pressure 29.77 in
Visibility -9999.0 miles
Clouds Few 1600 ft
Scattered Clouds 1800 ft
Mostly Cloudy 2200 ft
Dew Point 68 °F
Humidity 69%
Rainfall 0.00 in
Snow Depth Not available.
UV 3 out of 12
Pollen Not available.
Air Quality Not available.
Flu Activity Not available.
METAR VTSF 280900Z 32010G22KT 240V350 TS VCSH FEW016CB SCT018 BKN022 26/20 Q1008 A2977 TS OVER AD INFO J/RWY 01

More Conditions Fewer Conditions

Pressure 29.77 in
Visibility -9999.0 miles
Clouds Few 1600 ft
Scattered Clouds 1800 ft
Mostly Cloudy 2200 ft
Dew Point 68 °F
Humidity 69%
Rainfall 0.00 in
Snow Depth Not available.
UV 3 out of 12
Pollen Not available.
Air Quality Not available.
Flu Activity Not available.
METAR VTSF 280900Z 32010G22KT 240V350 TS VCSH FEW016CB SCT018 BKN022 26/20 Q1008 A2977 TS OVER AD INFO J/RWY 01

More Conditions Fewer Conditions

10-Day Weather Forecast

Almanac

Astronomy

Aug. 28, 2014 Rise Set
Actual Time 6:12 AM ICT 6:30 PM ICT
Civil Twilight 5:51 AM ICT 6:51 PM ICT
Nautical Twilight 5:26 AM ICT 7:16 PM ICT
Astronomical Twilight 5:01 AM ICT 7:41 PM ICT
Moon 8:00 AM ICT 8:17 PM ICT
Length of Visible Light 13h 00m
Length of Day
12h 18m
Tomorrow will be 0m 26s shorter.
Waxing Crescent, 7% of the Moon is Illuminated
Today
Waxing Crescent
Sep 2
First Quarter
Sep 8
Full
Sep 15
Last Quarter
Sep 24
New

Yesterday's Extremes

Country Highs Country Lows

Community

WunderPhotos

Upload Photos

1,747,918 photos uploaded!

Nearby

Snow Depth

Not available.

Earthquake Activity

City Distance Mag. Time & Date
No recent earthquake activity has been reported nearby.
Minimum magnitude displayed is 2.5.

Coastal Water Temperatures

Place Temperature
No Stations Reporting

Nearby Weather Stations